sensor_id;sensor_type;location;lat;lon;timestamp;P1;durP1;ratioP1;P2;durP2;ratioP2
64799;SDS011;51233;51.982;4.594;2023-06-26T00:02:00;5.07;;;4.03;;
64799;SDS011;51233;51.982;4.594;2023-06-26T00:05:00;5.43;;;4.10;;
64799;SDS011;51233;51.982;4.594;2023-06-26T00:08:02;6.82;;;4.55;;
64799;SDS011;51233;51.982;4.594;2023-06-26T00:11:02;10.53;;;4.73;;
64799;SDS011;51233;51.982;4.594;2023-06-26T00:14:02;7.13;;;3.83;;
64799;SDS011;51233;51.982;4.594;2023-06-26T00:17:03;5.07;;;3.43;;
64799;SDS011;51233;51.982;4.594;2023-06-26T00:20:03;4.43;;;4.03;;
64799;SDS011;51233;51.982;4.594;2023-06-26T00:23:05;5.30;;;3.90;;
64799;SDS011;51233;51.982;4.594;2023-06-26T00:26:07;8.93;;;3.97;;
64799;SDS011;51233;51.982;4.594;2023-06-26T00:29:07;5.33;;;3.87;;
64799;SDS011;51233;51.982;4.594;2023-06-26T00:32:10;4.57;;;4.03;;
64799;SDS011;51233;51.982;4.594;2023-06-26T00:35:11;7.28;;;3.95;;
64799;SDS011;51233;51.982;4.594;2023-06-26T00:38:11;4.32;;;3.70;;
64799;SDS011;51233;51.982;4.594;2023-06-26T00:41:11;7.38;;;3.75;;
64799;SDS011;51233;51.982;4.594;2023-06-26T00:44:12;8.65;;;3.75;;
64799;SDS011;51233;51.982;4.594;2023-06-26T00:47:14;5.73;;;3.47;;
64799;SDS011;51233;51.982;4.594;2023-06-26T00:50:14;7.90;;;3.50;;
64799;SDS011;51233;51.982;4.594;2023-06-26T00:53:18;3.83;;;2.75;;
64799;SDS011;51233;51.982;4.594;2023-06-26T00:56:20;9.65;;;2.88;;
64799;SDS011;51233;51.982;4.594;2023-06-26T00:59:20;6.97;;;3.58;;
64799;SDS011;51233;51.982;4.594;2023-06-26T01:02:20;11.38;;;3.83;;
64799;SDS011;51233;51.982;4.594;2023-06-26T01:05:20;10.70;;;3.97;;
64799;SDS011;51233;51.982;4.594;2023-06-26T01:08:21;7.83;;;3.43;;
64799;SDS011;51233;51.982;4.594;2023-06-26T01:11:21;7.18;;;3.33;;
64799;SDS011;51233;51.982;4.594;2023-06-26T01:14:23;6.57;;;3.58;;
64799;SDS011;51233;51.982;4.594;2023-06-26T01:17:23;8.48;;;3.63;;
64799;SDS011;51233;51.982;4.594;2023-06-26T01:20:24;8.87;;;4.43;;
64799;SDS011;51233;51.982;4.594;2023-06-26T01:23:29;6.13;;;2.70;;
64799;SDS011;51233;51.982;4.594;2023-06-26T01:26:36;6.93;;;2.83;;
64799;SDS011;51233;51.982;4.594;2023-06-26T01:29:38;11.13;;;3.55;;
64799;SDS011;51233;51.982;4.594;2023-06-26T01:32:39;11.25;;;3.88;;
64799;SDS011;51233;51.982;4.594;2023-06-26T01:35:39;10.27;;;4.40;;
64799;SDS011;51233;51.982;4.594;2023-06-26T01:38:39;10.83;;;4.07;;
64799;SDS011;51233;51.982;4.594;2023-06-26T01:41:39;10.80;;;4.35;;
64799;SDS011;51233;51.982;4.594;2023-06-26T01:44:42;11.87;;;4.10;;
64799;SDS011;51233;51.982;4.594;2023-06-26T01:47:44;9.73;;;4.10;;
64799;SDS011;51233;51.982;4.594;2023-06-26T01:50:53;9.50;;;4.10;;
64799;SDS011;51233;51.982;4.594;2023-06-26T01:53:54;11.80;;;4.50;;
64799;SDS011;51233;51.982;4.594;2023-06-26T01:56:56;7.75;;;4.10;;
64799;SDS011;51233;51.982;4.594;2023-06-26T01:59:57;14.68;;;4.22;;
64799;SDS011;51233;51.982;4.594;2023-06-26T02:05:58;8.60;;;3.80;;
64799;SDS011;51233;51.982;4.594;2023-06-26T02:08:58;17.47;;;5.07;;
64799;SDS011;51233;51.982;4.594;2023-06-26T02:11:59;8.80;;;3.50;;
64799;SDS011;51233;51.982;4.594;2023-06-26T02:14:59;7.60;;;3.60;;
64799;SDS011;51233;51.982;4.594;2023-06-26T02:17:59;11.63;;;3.90;;
64799;SDS011;51233;51.982;4.594;2023-06-26T02:20:59;7.18;;;3.55;;
64799;SDS011;51233;51.982;4.594;2023-06-26T02:24:00;14.33;;;4.80;;
64799;SDS011;51233;51.982;4.594;2023-06-26T02:27:00;11.73;;;4.10;;
64799;SDS011;51233;51.982;4.594;2023-06-26T02:30:00;10.37;;;4.03;;
64799;SDS011;51233;51.982;4.594;2023-06-26T02:33:00;4.10;;;2.80;;
64799;SDS011;51233;51.982;4.594;2023-06-26T02:36:00;6.35;;;2.97;;
64799;SDS011;51233;51.982;4.594;2023-06-26T02:39:01;9.23;;;3.80;;
64799;SDS011;51233;51.982;4.594;2023-06-26T02:42:01;13.77;;;4.70;;
64799;SDS011;51233;51.982;4.594;2023-06-26T02:45:01;9.00;;;2.93;;
64799;SDS011;51233;51.982;4.594;2023-06-26T02:48:02;9.53;;;3.90;;
64799;SDS011;51233;51.982;4.594;2023-06-26T02:51:02;10.93;;;4.13;;
64799;SDS011;51233;51.982;4.594;2023-06-26T02:54:02;6.60;;;3.90;;
64799;SDS011;51233;51.982;4.594;2023-06-26T02:57:03;9.80;;;3.80;;
64799;SDS011;51233;51.982;4.594;2023-06-26T03:00:03;13.40;;;3.50;;
64799;SDS011;51233;51.982;4.594;2023-06-26T03:03:07;12.60;;;4.55;;
64799;SDS011;51233;51.982;4.594;2023-06-26T03:06:07;5.80;;;3.22;;
64799;SDS011;51233;51.982;4.594;2023-06-26T03:09:07;9.80;;;4.30;;
64799;SDS011;51233;51.982;4.594;2023-06-26T03:12:08;15.30;;;3.92;;
64799;SDS011;51233;51.982;4.594;2023-06-26T03:15:08;9.32;;;3.67;;
64799;SDS011;51233;51.982;4.594;2023-06-26T03:18:09;8.03;;;3.37;;
64799;SDS011;51233;51.982;4.594;2023-06-26T03:21:09;10.17;;;3.60;;
64799;SDS011;51233;51.982;4.594;2023-06-26T03:24:09;15.20;;;4.63;;
64799;SDS011;51233;51.982;4.594;2023-06-26T03:27:10;10.47;;;4.10;;
64799;SDS011;51233;51.982;4.594;2023-06-26T03:30:10;6.65;;;2.78;;
64799;SDS011;51233;51.982;4.594;2023-06-26T03:33:11;8.98;;;3.97;;
64799;SDS011;51233;51.982;4.594;2023-06-26T03:36:11;10.50;;;4.00;;
64799;SDS011;51233;51.982;4.594;2023-06-26T03:39:11;4.53;;;2.13;;
64799;SDS011;51233;51.982;4.594;2023-06-26T03:42:11;12.00;;;3.80;;
64799;SDS011;51233;51.982;4.594;2023-06-26T03:45:11;10.13;;;4.03;;
64799;SDS011;51233;51.982;4.594;2023-06-26T03:48:12;8.73;;;3.60;;
64799;SDS011;51233;51.982;4.594;2023-06-26T03:51:12;7.80;;;3.47;;
64799;SDS011;51233;51.982;4.594;2023-06-26T03:54:12;11.80;;;4.00;;
64799;SDS011;51233;51.982;4.594;2023-06-26T03:57:12;9.70;;;3.87;;
64799;SDS011;51233;51.982;4.594;2023-06-26T04:00:16;10.80;;;4.33;;
64799;SDS011;51233;51.982;4.594;2023-06-26T04:03:16;15.10;;;4.07;;
64799;SDS011;51233;51.982;4.594;2023-06-26T04:06:16;7.17;;;2.90;;
64799;SDS011;51233;51.982;4.594;2023-06-26T04:09:16;7.50;;;3.70;;
64799;SDS011;51233;51.982;4.594;2023-06-26T04:12:17;8.93;;;3.50;;
64799;SDS011;51233;51.982;4.594;2023-06-26T04:15:17;8.13;;;3.70;;
64799;SDS011;51233;51.982;4.594;2023-06-26T04:18:17;9.80;;;3.47;;
64799;SDS011;51233;51.982;4.594;2023-06-26T04:21:20;4.72;;;2.67;;
64799;SDS011;51233;51.982;4.594;2023-06-26T04:24:20;8.03;;;3.33;;
64799;SDS011;51233;51.982;4.594;2023-06-26T04:27:26;7.85;;;3.60;;
64799;SDS011;51233;51.982;4.594;2023-06-26T04:30:26;7.88;;;3.67;;
64799;SDS011;51233;51.982;4.594;2023-06-26T04:33:26;4.57;;;2.55;;
64799;SDS011;51233;51.982;4.594;2023-06-26T04:36:26;6.40;;;3.13;;
64799;SDS011;51233;51.982;4.594;2023-06-26T04:39:31;3.97;;;2.65;;
64799;SDS011;51233;51.982;4.594;2023-06-26T04:42:31;2.40;;;2.17;;
64799;SDS011;51233;51.982;4.594;2023-06-26T04:45:34;6.97;;;3.33;;
64799;SDS011;51233;51.982;4.594;2023-06-26T04:48:34;3.08;;;2.17;;
64799;SDS011;51233;51.982;4.594;2023-06-26T04:51:35;4.17;;;2.70;;
64799;SDS011;51233;51.982;4.594;2023-06-26T04:54:40;7.22;;;3.25;;
64799;SDS011;51233;51.982;4.594;2023-06-26T04:57:40;6.83;;;2.47;;
64799;SDS011;51233;51.982;4.594;2023-06-26T05:00:40;4.93;;;2.78;;
64799;SDS011;51233;51.982;4.594;2023-06-26T05:03:42;8.35;;;2.60;;
64799;SDS011;51233;51.982;4.594;2023-06-26T05:06:43;6.43;;;2.40;;
64799;SDS011;51233;51.982;4.594;2023-06-26T05:09:43;3.95;;;2.75;;
64799;SDS011;51233;51.982;4.594;2023-06-26T05:12:43;2.73;;;2.20;;
64799;SDS011;51233;51.982;4.594;2023-06-26T05:15:43;5.53;;;2.70;;
64799;SDS011;51233;51.982;4.594;2023-06-26T05:18:44;3.17;;;2.07;;
64799;SDS011;51233;51.982;4.594;2023-06-26T05:21:44;2.35;;;1.52;;
64799;SDS011;51233;51.982;4.594;2023-06-26T05:24:45;5.87;;;2.70;;
64799;SDS011;51233;51.982;4.594;2023-06-26T05:27:46;3.90;;;2.47;;
64799;SDS011;51233;51.982;4.594;2023-06-26T05:30:47;3.53;;;2.42;;
64799;SDS011;51233;51.982;4.594;2023-06-26T05:33:47;2.30;;;2.10;;
64799;SDS011;51233;51.982;4.594;2023-06-26T05:36:49;1.80;;;1.70;;
64799;SDS011;51233;51.982;4.594;2023-06-26T05:39:50;4.78;;;2.15;;
64799;SDS011;51233;51.982;4.594;2023-06-26T05:42:50;5.90;;;2.40;;
64799;SDS011;51233;51.982;4.594;2023-06-26T05:45:51;3.80;;;1.87;;
64799;SDS011;51233;51.982;4.594;2023-06-26T05:48:51;4.97;;;1.60;;
64799;SDS011;51233;51.982;4.594;2023-06-26T05:51:51;4.20;;;1.90;;
64799;SDS011;51233;51.982;4.594;2023-06-26T05:54:52;4.33;;;1.70;;
64799;SDS011;51233;51.982;4.594;2023-06-26T05:57:52;2.73;;;1.80;;
64799;SDS011;51233;51.982;4.594;2023-06-26T06:00:52;3.80;;;1.77;;
64799;SDS011;51233;51.982;4.594;2023-06-26T06:03:52;2.03;;;1.70;;
64799;SDS011;51233;51.982;4.594;2023-06-26T06:06:53;4.75;;;1.63;;
64799;SDS011;51233;51.982;4.594;2023-06-26T06:09:53;6.13;;;1.50;;
64799;SDS011;51233;51.982;4.594;2023-06-26T06:12:53;4.53;;;1.35;;
64799;SDS011;51233;51.982;4.594;2023-06-26T06:15:54;7.70;;;1.60;;
64799;SDS011;51233;51.982;4.594;2023-06-26T06:18:55;4.70;;;1.50;;
64799;SDS011;51233;51.982;4.594;2023-06-26T06:21:56;7.13;;;1.47;;
64799;SDS011;51233;51.982;4.594;2023-06-26T06:24:57;6.22;;;1.70;;
64799;SDS011;51233;51.982;4.594;2023-06-26T06:27:57;6.80;;;1.53;;
64799;SDS011;51233;51.982;4.594;2023-06-26T06:30:57;5.13;;;1.50;;
64799;SDS011;51233;51.982;4.594;2023-06-26T06:34:00;6.33;;;1.50;;
64799;SDS011;51233;51.982;4.594;2023-06-26T06:37:01;5.30;;;1.50;;
64799;SDS011;51233;51.982;4.594;2023-06-26T06:40:02;6.05;;;1.60;;
64799;SDS011;51233;51.982;4.594;2023-06-26T06:43:03;4.88;;;1.67;;
64799;SDS011;51233;51.982;4.594;2023-06-26T06:46:04;2.37;;;1.30;;
64799;SDS011;51233;51.982;4.594;2023-06-26T06:49:04;4.03;;;1.73;;
64799;SDS011;51233;51.982;4.594;2023-06-26T06:52:04;6.43;;;1.73;;
64799;SDS011;51233;51.982;4.594;2023-06-26T06:55:05;6.37;;;1.90;;
64799;SDS011;51233;51.982;4.594;2023-06-26T06:58:06;7.75;;;2.05;;
64799;SDS011;51233;51.982;4.594;2023-06-26T07:01:06;5.27;;;1.63;;
64799;SDS011;51233;51.982;4.594;2023-06-26T07:04:06;3.42;;;1.55;;
64799;SDS011;51233;51.982;4.594;2023-06-26T07:07:06;7.23;;;1.87;;
64799;SDS011;51233;51.982;4.594;2023-06-26T07:10:08;3.27;;;1.60;;
64799;SDS011;51233;51.982;4.594;2023-06-26T07:13:09;5.38;;;1.55;;
64799;SDS011;51233;51.982;4.594;2023-06-26T07:16:09;8.00;;;1.87;;
64799;SDS011;51233;51.982;4.594;2023-06-26T07:19:11;4.70;;;1.67;;
64799;SDS011;51233;51.982;4.594;2023-06-26T07:22:11;4.70;;;1.80;;
64799;SDS011;51233;51.982;4.594;2023-06-26T07:25:11;5.43;;;1.60;;
64799;SDS011;51233;51.982;4.594;2023-06-26T07:28:12;5.60;;;1.80;;
64799;SDS011;51233;51.982;4.594;2023-06-26T07:31:15;3.80;;;1.63;;
64799;SDS011;51233;51.982;4.594;2023-06-26T07:34:16;5.95;;;1.80;;
64799;SDS011;51233;51.982;4.594;2023-06-26T07:37:16;3.00;;;1.60;;
64799;SDS011;51233;51.982;4.594;2023-06-26T07:40:17;8.93;;;1.70;;
64799;SDS011;51233;51.982;4.594;2023-06-26T07:43:17;7.87;;;1.47;;
64799;SDS011;51233;51.982;4.594;2023-06-26T07:46:18;3.33;;;1.50;;
64799;SDS011;51233;51.982;4.594;2023-06-26T07:49:18;5.47;;;1.63;;
64799;SDS011;51233;51.982;4.594;2023-06-26T07:52:18;10.33;;;1.80;;
64799;SDS011;51233;51.982;4.594;2023-06-26T07:55:18;6.53;;;1.87;;
64799;SDS011;51233;51.982;4.594;2023-06-26T07:58:19;5.83;;;1.80;;
64799;SDS011;51233;51.982;4.594;2023-06-26T08:01:19;7.43;;;2.00;;
64799;SDS011;51233;51.982;4.594;2023-06-26T08:04:20;7.37;;;1.97;;
64799;SDS011;51233;51.982;4.594;2023-06-26T08:10:21;6.70;;;1.50;;
64799;SDS011;51233;51.982;4.594;2023-06-26T08:13:21;8.20;;;2.00;;
64799;SDS011;51233;51.982;4.594;2023-06-26T08:16:21;4.95;;;1.73;;
64799;SDS011;51233;51.982;4.594;2023-06-26T08:19:21;4.27;;;1.80;;
64799;SDS011;51233;51.982;4.594;2023-06-26T08:22:24;5.85;;;1.50;;
64799;SDS011;51233;51.982;4.594;2023-06-26T08:25:24;2.83;;;1.35;;
64799;SDS011;51233;51.982;4.594;2023-06-26T08:28:27;6.30;;;1.57;;
64799;SDS011;51233;51.982;4.594;2023-06-26T08:31:27;3.88;;;1.77;;
64799;SDS011;51233;51.982;4.594;2023-06-26T08:34:34;6.07;;;1.55;;
64799;SDS011;51233;51.982;4.594;2023-06-26T08:37:34;6.00;;;1.70;;
64799;SDS011;51233;51.982;4.594;2023-06-26T08:40:34;3.13;;;1.60;;
64799;SDS011;51233;51.982;4.594;2023-06-26T08:43:35;5.00;;;1.60;;
64799;SDS011;51233;51.982;4.594;2023-06-26T08:46:35;8.43;;;1.90;;
64799;SDS011;51233;51.982;4.594;2023-06-26T08:49:37;4.73;;;1.37;;
64799;SDS011;51233;51.982;4.594;2023-06-26T08:55:43;5.77;;;1.87;;
64799;SDS011;51233;51.982;4.594;2023-06-26T08:58:43;5.70;;;1.80;;
64799;SDS011;51233;51.982;4.594;2023-06-26T09:01:44;7.05;;;1.88;;
64799;SDS011;51233;51.982;4.594;2023-06-26T09:04:45;4.32;;;1.73;;
64799;SDS011;51233;51.982;4.594;2023-06-26T09:07:45;3.57;;;1.50;;
64799;SDS011;51233;51.982;4.594;2023-06-26T09:10:45;7.25;;;2.10;;
64799;SDS011;51233;51.982;4.594;2023-06-26T09:13:45;4.93;;;1.70;;
64799;SDS011;51233;51.982;4.594;2023-06-26T09:16:47;5.93;;;1.63;;
64799;SDS011;51233;51.982;4.594;2023-06-26T09:19:48;4.93;;;1.63;;
64799;SDS011;51233;51.982;4.594;2023-06-26T09:22:48;4.47;;;1.57;;
64799;SDS011;51233;51.982;4.594;2023-06-26T09:25:48;4.97;;;1.57;;
64799;SDS011;51233;51.982;4.594;2023-06-26T09:28:48;3.47;;;1.53;;
64799;SDS011;51233;51.982;4.594;2023-06-26T09:31:51;4.13;;;1.60;;
64799;SDS011;51233;51.982;4.594;2023-06-26T09:34:52;3.63;;;1.63;;
64799;SDS011;51233;51.982;4.594;2023-06-26T09:37:53;4.60;;;1.60;;
64799;SDS011;51233;51.982;4.594;2023-06-26T09:40:53;6.30;;;1.67;;
64799;SDS011;51233;51.982;4.594;2023-06-26T09:43:54;7.40;;;1.85;;
64799;SDS011;51233;51.982;4.594;2023-06-26T09:46:57;4.88;;;1.30;;
64799;SDS011;51233;51.982;4.594;2023-06-26T09:49:57;5.23;;;1.90;;
64799;SDS011;51233;51.982;4.594;2023-06-26T09:52:57;5.20;;;1.77;;
64799;SDS011;51233;51.982;4.594;2023-06-26T09:55:57;5.70;;;2.00;;
64799;SDS011;51233;51.982;4.594;2023-06-26T09:59:02;4.95;;;2.20;;
64799;SDS011;51233;51.982;4.594;2023-06-26T10:02:03;7.82;;;1.88;;
64799;SDS011;51233;51.982;4.594;2023-06-26T10:08:04;5.93;;;1.90;;
64799;SDS011;51233;51.982;4.594;2023-06-26T10:11:06;5.53;;;2.05;;
64799;SDS011;51233;51.982;4.594;2023-06-26T10:14:10;4.97;;;1.90;;
64799;SDS011;51233;51.982;4.594;2023-06-26T10:17:11;4.85;;;2.03;;
64799;SDS011;51233;51.982;4.594;2023-06-26T10:20:13;3.67;;;1.60;;
64799;SDS011;51233;51.982;4.594;2023-06-26T10:23:14;3.87;;;1.80;;
64799;SDS011;51233;51.982;4.594;2023-06-26T10:26:15;3.65;;;1.80;;
64799;SDS011;51233;51.982;4.594;2023-06-26T10:29:16;6.95;;;1.80;;
64799;SDS011;51233;51.982;4.594;2023-06-26T10:35:17;5.00;;;1.60;;
64799;SDS011;51233;51.982;4.594;2023-06-26T10:38:17;4.13;;;1.30;;
64799;SDS011;51233;51.982;4.594;2023-06-26T10:41:21;3.13;;;1.48;;
64799;SDS011;51233;51.982;4.594;2023-06-26T10:44:40;4.38;;;1.40;;
64799;SDS011;51233;51.982;4.594;2023-06-26T10:47:41;5.55;;;1.27;;
64799;SDS011;51233;51.982;4.594;2023-06-26T10:50:41;1.30;;;0.90;;
64799;SDS011;51233;51.982;4.594;2023-06-26T10:53:41;4.20;;;1.33;;
64799;SDS011;51233;51.982;4.594;2023-06-26T10:56:44;2.08;;;0.88;;
64799;SDS011;51233;51.982;4.594;2023-06-26T10:59:45;4.20;;;1.17;;
64799;SDS011;51233;51.982;4.594;2023-06-26T11:02:51;3.93;;;1.17;;
64799;SDS011;51233;51.982;4.594;2023-06-26T11:09:24;2.97;;;1.30;;
64799;SDS011;51233;51.982;4.594;2023-06-26T11:15:34;5.45;;;1.15;;
64799;SDS011;51233;51.982;4.594;2023-06-26T11:18:35;1.13;;;1.00;;
64799;SDS011;51233;51.982;4.594;2023-06-26T11:21:35;2.08;;;1.02;;
64799;SDS011;51233;51.982;4.594;2023-06-26T11:24:37;2.72;;;1.13;;
64799;SDS011;51233;51.982;4.594;2023-06-26T11:27:38;4.00;;;1.00;;
64799;SDS011;51233;51.982;4.594;2023-06-26T11:33:45;3.47;;;1.25;;
64799;SDS011;51233;51.982;4.594;2023-06-26T11:36:45;3.85;;;1.45;;
64799;SDS011;51233;51.982;4.594;2023-06-26T11:39:49;5.55;;;1.40;;
64799;SDS011;51233;51.982;4.594;2023-06-26T11:42:49;2.33;;;1.00;;
64799;SDS011;51233;51.982;4.594;2023-06-26T11:45:52;4.60;;;1.40;;
64799;SDS011;51233;51.982;4.594;2023-06-26T11:48:53;2.47;;;1.20;;
64799;SDS011;51233;51.982;4.594;2023-06-26T11:51:53;4.25;;;1.33;;
64799;SDS011;51233;51.982;4.594;2023-06-26T11:54:56;1.02;;;0.88;;
64799;SDS011;51233;51.982;4.594;2023-06-26T11:57:57;3.63;;;1.25;;
64799;SDS011;51233;51.982;4.594;2023-06-26T12:00:57;2.47;;;1.30;;
64799;SDS011;51233;51.982;4.594;2023-06-26T12:03:58;3.50;;;0.93;;
64799;SDS011;51233;51.982;4.594;2023-06-26T12:06:59;1.60;;;0.80;;
64799;SDS011;51233;51.982;4.594;2023-06-26T12:10:00;1.93;;;1.20;;
64799;SDS011;51233;51.982;4.594;2023-06-26T12:13:01;1.17;;;1.08;;
64799;SDS011;51233;51.982;4.594;2023-06-26T12:16:01;3.47;;;0.90;;
64799;SDS011;51233;51.982;4.594;2023-06-26T12:19:04;2.83;;;1.10;;
64799;SDS011;51233;51.982;4.594;2023-06-26T12:22:08;2.33;;;1.13;;
64799;SDS011;51233;51.982;4.594;2023-06-26T12:25:08;3.40;;;1.15;;
64799;SDS011;51233;51.982;4.594;2023-06-26T12:28:15;1.50;;;1.07;;
64799;SDS011;51233;51.982;4.594;2023-06-26T12:31:16;3.78;;;1.02;;
64799;SDS011;51233;51.982;4.594;2023-06-26T12:34:18;1.70;;;1.10;;
64799;SDS011;51233;51.982;4.594;2023-06-26T12:37:18;2.60;;;1.08;;
64799;SDS011;51233;51.982;4.594;2023-06-26T12:40:19;2.20;;;1.10;;
64799;SDS011;51233;51.982;4.594;2023-06-26T12:43:22;1.25;;;0.90;;
64799;SDS011;51233;51.982;4.594;2023-06-26T12:49:43;3.90;;;1.63;;
64799;SDS011;51233;51.982;4.594;2023-06-26T12:55:44;2.55;;;1.13;;
64799;SDS011;51233;51.982;4.594;2023-06-26T12:58:44;3.13;;;1.23;;
64799;SDS011;51233;51.982;4.594;2023-06-26T13:01:44;3.50;;;1.30;;
64799;SDS011;51233;51.982;4.594;2023-06-26T13:04:44;4.13;;;1.30;;
64799;SDS011;51233;51.982;4.594;2023-06-26T13:07:45;4.13;;;1.37;;
64799;SDS011;51233;51.982;4.594;2023-06-26T13:10:45;2.17;;;1.30;;
64799;SDS011;51233;51.982;4.594;2023-06-26T13:13:45;2.08;;;1.10;;
64799;SDS011;51233;51.982;4.594;2023-06-26T13:16:46;4.20;;;1.30;;
64799;SDS011;51233;51.982;4.594;2023-06-26T13:19:46;4.50;;;1.40;;
64799;SDS011;51233;51.982;4.594;2023-06-26T13:22:46;3.67;;;1.67;;
64799;SDS011;51233;51.982;4.594;2023-06-26T13:25:47;3.00;;;1.20;;
64799;SDS011;51233;51.982;4.594;2023-06-26T13:28:47;2.83;;;1.00;;
64799;SDS011;51233;51.982;4.594;2023-06-26T13:31:48;3.35;;;1.30;;
64799;SDS011;51233;51.982;4.594;2023-06-26T13:34:48;2.53;;;1.10;;
64799;SDS011;51233;51.982;4.594;2023-06-26T13:37:48;1.90;;;1.00;;
64799;SDS011;51233;51.982;4.594;2023-06-26T13:40:48;1.07;;;0.87;;
64799;SDS011;51233;51.982;4.594;2023-06-26T13:43:51;4.68;;;1.30;;
64799;SDS011;51233;51.982;4.594;2023-06-26T13:46:51;4.05;;;1.30;;
64799;SDS011;51233;51.982;4.594;2023-06-26T13:49:53;3.85;;;1.10;;
64799;SDS011;51233;51.982;4.594;2023-06-26T13:52:53;3.90;;;1.05;;
64799;SDS011;51233;51.982;4.594;2023-06-26T13:55:53;3.47;;;1.30;;
64799;SDS011;51233;51.982;4.594;2023-06-26T13:58:53;3.75;;;1.25;;
64799;SDS011;51233;51.982;4.594;2023-06-26T14:01:54;2.33;;;1.13;;
64799;SDS011;51233;51.982;4.594;2023-06-26T14:04:55;1.75;;;1.00;;
64799;SDS011;51233;51.982;4.594;2023-06-26T14:07:55;3.80;;;1.10;;
64799;SDS011;51233;51.982;4.594;2023-06-26T14:10:55;2.93;;;1.30;;
64799;SDS011;51233;51.982;4.594;2023-06-26T14:13:55;1.87;;;1.17;;
64799;SDS011;51233;51.982;4.594;2023-06-26T14:16:55;1.63;;;0.90;;
64799;SDS011;51233;51.982;4.594;2023-06-26T14:19:56;2.90;;;1.60;;
64799;SDS011;51233;51.982;4.594;2023-06-26T14:22:59;1.60;;;1.20;;
64799;SDS011;51233;51.982;4.594;2023-06-26T14:25:59;1.35;;;0.93;;
64799;SDS011;51233;51.982;4.594;2023-06-26T14:29:00;1.92;;;1.00;;
64799;SDS011;51233;51.982;4.594;2023-06-26T14:32:00;1.27;;;1.02;;
64799;SDS011;51233;51.982;4.594;2023-06-26T14:35:00;3.20;;;1.20;;
64799;SDS011;51233;51.982;4.594;2023-06-26T14:38:01;1.63;;;1.10;;
64799;SDS011;51233;51.982;4.594;2023-06-26T14:41:01;3.03;;;1.10;;
64799;SDS011;51233;51.982;4.594;2023-06-26T14:44:01;2.60;;;1.00;;
64799;SDS011;51233;51.982;4.594;2023-06-26T14:47:02;1.20;;;0.97;;
64799;SDS011;51233;51.982;4.594;2023-06-26T14:50:02;1.93;;;0.83;;
64799;SDS011;51233;51.982;4.594;2023-06-26T14:53:02;2.47;;;1.10;;
64799;SDS011;51233;51.982;4.594;2023-06-26T14:56:02;2.45;;;1.15;;
64799;SDS011;51233;51.982;4.594;2023-06-26T14:59:02;5.07;;;1.00;;
64799;SDS011;51233;51.982;4.594;2023-06-26T15:02:03;3.38;;;1.00;;
64799;SDS011;51233;51.982;4.594;2023-06-26T15:05:03;2.30;;;1.07;;
64799;SDS011;51233;51.982;4.594;2023-06-26T15:08:03;2.57;;;1.10;;
64799;SDS011;51233;51.982;4.594;2023-06-26T15:11:04;2.47;;;1.38;;
64799;SDS011;51233;51.982;4.594;2023-06-26T15:14:04;2.60;;;1.30;;
64799;SDS011;51233;51.982;4.594;2023-06-26T15:17:07;1.67;;;1.13;;
64799;SDS011;51233;51.982;4.594;2023-06-26T15:20:07;1.70;;;1.23;;
64799;SDS011;51233;51.982;4.594;2023-06-26T15:23:11;2.53;;;1.00;;
64799;SDS011;51233;51.982;4.594;2023-06-26T15:26:11;1.80;;;1.20;;
64799;SDS011;51233;51.982;4.594;2023-06-26T15:29:11;2.53;;;1.17;;
64799;SDS011;51233;51.982;4.594;2023-06-26T15:32:14;2.22;;;1.10;;
64799;SDS011;51233;51.982;4.594;2023-06-26T15:35:16;2.78;;;1.23;;
64799;SDS011;51233;51.982;4.594;2023-06-26T15:38:16;3.08;;;1.10;;
64799;SDS011;51233;51.982;4.594;2023-06-26T15:41:17;2.60;;;1.30;;
64799;SDS011;51233;51.982;4.594;2023-06-26T15:44:17;3.33;;;1.53;;
64799;SDS011;51233;51.982;4.594;2023-06-26T15:47:17;2.83;;;1.25;;
64799;SDS011;51233;51.982;4.594;2023-06-26T15:50:20;5.47;;;1.30;;
64799;SDS011;51233;51.982;4.594;2023-06-26T15:53:20;3.97;;;1.20;;
64799;SDS011;51233;51.982;4.594;2023-06-26T15:56:33;1.88;;;1.00;;
64799;SDS011;51233;51.982;4.594;2023-06-26T15:59:33;0.98;;;0.93;;
64799;SDS011;51233;51.982;4.594;2023-06-26T16:02:33;3.33;;;1.30;;
64799;SDS011;51233;51.982;4.594;2023-06-26T16:05:34;2.15;;;1.30;;
64799;SDS011;51233;51.982;4.594;2023-06-26T16:08:34;2.37;;;1.20;;
64799;SDS011;51233;51.982;4.594;2023-06-26T16:11:34;3.00;;;1.50;;
64799;SDS011;51233;51.982;4.594;2023-06-26T16:14:34;2.67;;;1.33;;
64799;SDS011;51233;51.982;4.594;2023-06-26T16:17:38;6.53;;;1.77;;
64799;SDS011;51233;51.982;4.594;2023-06-26T16:20:38;4.85;;;1.40;;
64799;SDS011;51233;51.982;4.594;2023-06-26T16:23:38;8.52;;;1.55;;
64799;SDS011;51233;51.982;4.594;2023-06-26T16:26:39;2.47;;;1.52;;
64799;SDS011;51233;51.982;4.594;2023-06-26T16:29:39;3.05;;;1.40;;
64799;SDS011;51233;51.982;4.594;2023-06-26T16:32:40;4.15;;;2.05;;
64799;SDS011;51233;51.982;4.594;2023-06-26T16:35:40;3.23;;;1.30;;
64799;SDS011;51233;51.982;4.594;2023-06-26T16:38:40;3.50;;;1.50;;
64799;SDS011;51233;51.982;4.594;2023-06-26T16:41:41;5.13;;;1.50;;
64799;SDS011;51233;51.982;4.594;2023-06-26T16:44:42;1.48;;;1.20;;
64799;SDS011;51233;51.982;4.594;2023-06-26T16:47:42;5.57;;;1.93;;
64799;SDS011;51233;51.982;4.594;2023-06-26T16:50:42;2.22;;;1.55;;
64799;SDS011;51233;51.982;4.594;2023-06-26T16:53:42;3.40;;;2.10;;
64799;SDS011;51233;51.982;4.594;2023-06-26T16:56:42;3.40;;;1.58;;
64799;SDS011;51233;51.982;4.594;2023-06-26T16:59:42;5.03;;;1.80;;
64799;SDS011;51233;51.982;4.594;2023-06-26T17:02:43;2.07;;;1.70;;
64799;SDS011;51233;51.982;4.594;2023-06-26T17:05:44;2.40;;;1.15;;
64799;SDS011;51233;51.982;4.594;2023-06-26T17:08:44;3.27;;;1.67;;
64799;SDS011;51233;51.982;4.594;2023-06-26T17:11:44;3.17;;;1.40;;
64799;SDS011;51233;51.982;4.594;2023-06-26T17:14:44;1.58;;;1.05;;
64799;SDS011;51233;51.982;4.594;2023-06-26T17:17:45;3.53;;;1.23;;
64799;SDS011;51233;51.982;4.594;2023-06-26T17:20:48;6.57;;;1.53;;
64799;SDS011;51233;51.982;4.594;2023-06-26T17:23:48;2.10;;;1.10;;
64799;SDS011;51233;51.982;4.594;2023-06-26T17:26:48;3.17;;;1.57;;
64799;SDS011;51233;51.982;4.594;2023-06-26T17:29:48;5.53;;;1.20;;
64799;SDS011;51233;51.982;4.594;2023-06-26T17:32:48;2.97;;;1.30;;
64799;SDS011;51233;51.982;4.594;2023-06-26T17:35:49;2.83;;;1.20;;
64799;SDS011;51233;51.982;4.594;2023-06-26T17:38:49;3.80;;;1.40;;
64799;SDS011;51233;51.982;4.594;2023-06-26T17:41:49;1.33;;;1.07;;
64799;SDS011;51233;51.982;4.594;2023-06-26T17:44:49;2.93;;;1.50;;
64799;SDS011;51233;51.982;4.594;2023-06-26T17:47:50;4.33;;;1.40;;
64799;SDS011;51233;51.982;4.594;2023-06-26T17:50:50;3.17;;;1.20;;
64799;SDS011;51233;51.982;4.594;2023-06-26T17:53:50;4.27;;;1.20;;
64799;SDS011;51233;51.982;4.594;2023-06-26T17:56:50;3.23;;;1.20;;
64799;SDS011;51233;51.982;4.594;2023-06-26T17:59:51;1.93;;;1.43;;
64799;SDS011;51233;51.982;4.594;2023-06-26T18:02:51;4.73;;;1.70;;
64799;SDS011;51233;51.982;4.594;2023-06-26T18:05:51;2.67;;;1.25;;
64799;SDS011;51233;51.982;4.594;2023-06-26T18:08:51;6.63;;;1.70;;
64799;SDS011;51233;51.982;4.594;2023-06-26T18:11:51;3.57;;;1.50;;
64799;SDS011;51233;51.982;4.594;2023-06-26T18:14:52;3.63;;;1.30;;
64799;SDS011;51233;51.982;4.594;2023-06-26T18:17:52;5.57;;;1.50;;
64799;SDS011;51233;51.982;4.594;2023-06-26T18:20:52;4.90;;;1.40;;
64799;SDS011;51233;51.982;4.594;2023-06-26T18:23:55;2.95;;;1.38;;
64799;SDS011;51233;51.982;4.594;2023-06-26T18:26:55;5.30;;;1.50;;
64799;SDS011;51233;51.982;4.594;2023-06-26T18:29:56;1.40;;;1.10;;
64799;SDS011;51233;51.982;4.594;2023-06-26T18:32:56;5.30;;;1.60;;
64799;SDS011;51233;51.982;4.594;2023-06-26T18:35:57;3.22;;;1.48;;
64799;SDS011;51233;51.982;4.594;2023-06-26T18:38:57;3.20;;;1.38;;